sensor_id;sensor_type;location;lat;lon;timestamp;pressure;altitude;pressure_sealevel;temperature;humidity
54172;BME280;40076;52.354;4.970;2023-03-11T00:01:00;100722.31;;;2.67;100.00
54172;BME280;40076;52.354;4.970;2023-03-11T00:03:26;100720.75;;;2.66;100.00
54172;BME280;40076;52.354;4.970;2023-03-11T00:05:53;100726.88;;;2.67;100.00
54172;BME280;40076;52.354;4.970;2023-03-11T00:08:22;100723.66;;;2.65;100.00
54172;BME280;40076;52.354;4.970;2023-03-11T00:10:51;100721.81;;;2.65;100.00
54172;BME280;40076;52.354;4.970;2023-03-11T00:13:17;100724.22;;;2.67;100.00
54172;BME280;40076;52.354;4.970;2023-03-11T00:15:45;100727.94;;;2.66;100.00
54172;BME280;40076;52.354;4.970;2023-03-11T00:18:11;100728.75;;;2.66;100.00
54172;BME280;40076;52.354;4.970;2023-03-11T00:20:39;100726.06;;;2.66;100.00
54172;BME280;40076;52.354;4.970;2023-03-11T00:23:14;100725.28;;;2.66;100.00
54172;BME280;40076;52.354;4.970;2023-03-11T00:25:43;100735.16;;;2.65;100.00
54172;BME280;40076;52.354;4.970;2023-03-11T00:28:08;100740.47;;;2.65;100.00
54172;BME280;40076;52.354;4.970;2023-03-11T00:30:38;100744.22;;;2.64;100.00
54172;BME280;40076;52.354;4.970;2023-03-11T00:33:04;100748.47;;;2.65;100.00
54172;BME280;40076;52.354;4.970;2023-03-11T00:35:31;100757.56;;;2.64;100.00
54172;BME280;40076;52.354;4.970;2023-03-11T00:38:00;100748.75;;;2.64;100.00
54172;BME280;40076;52.354;4.970;2023-03-11T00:40:28;100762.09;;;2.64;100.00
54172;BME280;40076;52.354;4.970;2023-03-11T00:42:54;100771.16;;;2.63;100.00
54172;BME280;40076;52.354;4.970;2023-03-11T00:45:20;100766.88;;;2.62;100.00
54172;BME280;40076;52.354;4.970;2023-03-11T00:47:45;100774.63;;;2.58;100.00
54172;BME280;40076;52.354;4.970;2023-03-11T00:50:17;100779.13;;;2.53;99.18
54172;BME280;40076;52.354;4.970;2023-03-11T00:52:44;100780.22;;;2.57;100.00
54172;BME280;40076;52.354;4.970;2023-03-11T00:55:10;100782.63;;;2.58;100.00
54172;BME280;40076;52.354;4.970;2023-03-11T00:57:37;100777.28;;;2.58;100.00
54172;BME280;40076;52.354;4.970;2023-03-11T01:00:04;100784.50;;;2.58;100.00
54172;BME280;40076;52.354;4.970;2023-03-11T01:02:31;100785.31;;;2.58;100.00
54172;BME280;40076;52.354;4.970;2023-03-11T01:04:56;100793.31;;;2.58;100.00
54172;BME280;40076;52.354;4.970;2023-03-11T01:07:22;100792.50;;;2.58;100.00
54172;BME280;40076;52.354;4.970;2023-03-11T01:09:47;100794.63;;;2.56;100.00
54172;BME280;40076;52.354;4.970;2023-03-11T01:12:12;100787.69;;;2.55;100.00
54172;BME280;40076;52.354;4.970;2023-03-11T01:14:38;100793.28;;;2.53;100.00
54172;BME280;40076;52.354;4.970;2023-03-11T01:17:03;100799.41;;;2.54;100.00
54172;BME280;40076;52.354;4.970;2023-03-11T01:19:28;100795.94;;;2.53;100.00
54172;BME280;40076;52.354;4.970;2023-03-11T01:21:54;100804.22;;;2.52;100.00
54172;BME280;40076;52.354;4.970;2023-03-11T01:24:19;100805.56;;;2.49;100.00
54172;BME280;40076;52.354;4.970;2023-03-11T01:26:44;100815.16;;;2.50;100.00
54172;BME280;40076;52.354;4.970;2023-03-11T01:29:10;100813.31;;;2.51;100.00
54172;BME280;40076;52.354;4.970;2023-03-11T01:31:35;100814.38;;;2.50;100.00
54172;BME280;40076;52.354;4.970;2023-03-11T01:34:00;100807.97;;;2.51;100.00
54172;BME280;40076;52.354;4.970;2023-03-11T01:36:25;100817.03;;;2.50;99.42
54172;BME280;40076;52.354;4.970;2023-03-11T01:38:51;100815.44;;;2.49;99.93
54172;BME280;40076;52.354;4.970;2023-03-11T01:41:16;100820.75;;;2.49;99.86
54172;BME280;40076;52.354;4.970;2023-03-11T01:46:14;100819.16;;;2.48;99.53
54172;BME280;40076;52.354;4.970;2023-03-11T01:48:41;100821.56;;;2.49;100.00
54172;BME280;40076;52.354;4.970;2023-03-11T01:54:35;100821.28;;;2.41;100.00
54172;BME280;40076;52.354;4.970;2023-03-11T01:57:05;100823.16;;;2.40;100.00
54172;BME280;40076;52.354;4.970;2023-03-11T01:59:35;100827.69;;;2.40;100.00
54172;BME280;40076;52.354;4.970;2023-03-11T02:04:32;100828.72;;;2.39;100.00
54172;BME280;40076;52.354;4.970;2023-03-11T02:06:58;100833.00;;;2.40;100.00
54172;BME280;40076;52.354;4.970;2023-03-11T02:09:24;100832.22;;;2.39;99.99
54172;BME280;40076;52.354;4.970;2023-03-11T02:11:51;100826.06;;;2.39;100.00
54172;BME280;40076;52.354;4.970;2023-03-11T02:14:16;100833.00;;;2.40;99.36
54172;BME280;40076;52.354;4.970;2023-03-11T02:16:41;100836.72;;;2.39;99.67
54172;BME280;40076;52.354;4.970;2023-03-11T02:19:20;100843.13;;;2.38;100.00
54172;BME280;40076;52.354;4.970;2023-03-11T02:21:48;100842.31;;;2.37;99.93
54172;BME280;40076;52.354;4.970;2023-03-11T02:24:22;100846.09;;;2.36;99.96
54172;BME280;40076;52.354;4.970;2023-03-11T02:26:57;100839.16;;;2.35;100.00
54172;BME280;40076;52.354;4.970;2023-03-11T02:29:24;100847.94;;;2.36;99.96
54172;BME280;40076;52.354;4.970;2023-03-11T02:31:50;100841.25;;;2.33;99.71
54172;BME280;40076;52.354;4.970;2023-03-11T02:34:28;100840.47;;;2.32;100.00
54172;BME280;40076;52.354;4.970;2023-03-11T02:36:54;100839.91;;;2.30;99.50
54172;BME280;40076;52.354;4.970;2023-03-11T02:39:34;100835.38;;;2.31;99.95
54172;BME280;40076;52.354;4.970;2023-03-11T02:42:04;100827.66;;;2.29;99.30
54172;BME280;40076;52.354;4.970;2023-03-11T02:44:30;100824.72;;;2.26;98.61
54172;BME280;40076;52.354;4.970;2023-03-11T02:46:55;100824.72;;;2.26;99.14
54172;BME280;40076;52.354;4.970;2023-03-11T02:49:21;100834.59;;;2.25;99.53
54172;BME280;40076;52.354;4.970;2023-03-11T02:51:47;100827.66;;;2.24;98.77
54172;BME280;40076;52.354;4.970;2023-03-11T02:54:12;100826.59;;;2.25;98.89
54172;BME280;40076;52.354;4.970;2023-03-11T02:56:38;100836.44;;;2.25;99.07
54172;BME280;40076;52.354;4.970;2023-03-11T02:59:03;100841.50;;;2.21;98.09
54172;BME280;40076;52.354;4.970;2023-03-11T03:01:28;100837.75;;;2.22;98.20
54172;BME280;40076;52.354;4.970;2023-03-11T03:03:54;100841.50;;;2.21;98.37
54172;BME280;40076;52.354;4.970;2023-03-11T03:06:19;100848.72;;;2.21;98.19
54172;BME280;40076;52.354;4.970;2023-03-11T03:08:44;100847.09;;;2.20;97.96
54172;BME280;40076;52.354;4.970;2023-03-11T03:11:10;100844.44;;;2.20;97.89
54172;BME280;40076;52.354;4.970;2023-03-11T03:13:35;100851.63;;;2.19;98.17
54172;BME280;40076;52.354;4.970;2023-03-11T03:16:01;100854.31;;;2.19;97.94
54172;BME280;40076;52.354;4.970;2023-03-11T03:18:26;100855.34;;;2.18;97.97
54172;BME280;40076;52.354;4.970;2023-03-11T03:20:52;100862.28;;;2.19;97.52
54172;BME280;40076;52.354;4.970;2023-03-11T03:23:18;100866.81;;;2.19;97.28
54172;BME280;40076;52.354;4.970;2023-03-11T03:25:44;100868.16;;;2.16;96.45
54172;BME280;40076;52.354;4.970;2023-03-11T03:28:11;100869.75;;;2.17;96.84
54172;BME280;40076;52.354;4.970;2023-03-11T03:30:36;100864.66;;;2.16;96.79
54172;BME280;40076;52.354;4.970;2023-03-11T03:33:02;100868.16;;;2.16;96.38
54172;BME280;40076;52.354;4.970;2023-03-11T03:35:27;100881.47;;;2.16;96.55
54172;BME280;40076;52.354;4.970;2023-03-11T03:37:52;100881.47;;;2.16;96.43
54172;BME280;40076;52.354;4.970;2023-03-11T03:40:19;100892.13;;;2.16;96.23
54172;BME280;40076;52.354;4.970;2023-03-11T03:42:44;100894.81;;;2.16;96.28
54172;BME280;40076;52.354;4.970;2023-03-11T03:45:10;100900.94;;;2.17;96.56
54172;BME280;40076;52.354;4.970;2023-03-11T03:47:35;100903.06;;;2.15;96.10
54172;BME280;40076;52.354;4.970;2023-03-11T03:50:03;100910.25;;;2.14;96.12
54172;BME280;40076;52.354;4.970;2023-03-11T03:52:28;100917.97;;;2.16;96.65
54172;BME280;40076;52.354;4.970;2023-03-11T03:54:53;100914.78;;;2.14;96.41
54172;BME280;40076;52.354;4.970;2023-03-11T03:57:19;100911.34;;;2.13;96.42
54172;BME280;40076;52.354;4.970;2023-03-11T03:59:44;100916.91;;;2.12;96.39
54172;BME280;40076;52.354;4.970;2023-03-11T04:02:09;100925.72;;;2.12;95.95
54172;BME280;40076;52.354;4.970;2023-03-11T04:04:35;100923.84;;;2.13;96.10
54172;BME280;40076;52.354;4.970;2023-03-11T04:07:03;100923.06;;;2.12;96.00
54172;BME280;40076;52.354;4.970;2023-03-11T04:09:28;100921.72;;;2.15;95.83
54172;BME280;40076;52.354;4.970;2023-03-11T04:11:54;100920.91;;;2.14;95.93
54172;BME280;40076;52.354;4.970;2023-03-11T04:14:19;100918.25;;;2.14;96.25
54172;BME280;40076;52.354;4.970;2023-03-11T04:16:44;100921.47;;;2.16;96.20
54172;BME280;40076;52.354;4.970;2023-03-11T04:19:09;100925.72;;;2.17;96.49
54172;BME280;40076;52.354;4.970;2023-03-11T04:21:37;100921.19;;;2.18;96.61
54172;BME280;40076;52.354;4.970;2023-03-11T04:24:02;100922.00;;;2.18;96.25
54172;BME280;40076;52.354;4.970;2023-03-11T04:26:28;100920.16;;;2.19;96.02
54172;BME280;40076;52.354;4.970;2023-03-11T04:28:53;100926.28;;;2.19;96.04
54172;BME280;40076;52.354;4.970;2023-03-11T04:31:19;100928.69;;;2.21;96.27
54172;BME280;40076;52.354;4.970;2023-03-11T04:33:44;100927.59;;;2.22;96.97
54172;BME280;40076;52.354;4.970;2023-03-11T04:36:11;100931.34;;;2.21;97.14
54172;BME280;40076;52.354;4.970;2023-03-11T04:38:36;100934.28;;;2.19;97.89
54172;BME280;40076;52.354;4.970;2023-03-11T04:41:05;100941.22;;;2.20;98.69
54172;BME280;40076;52.354;4.970;2023-03-11T04:43:32;100940.41;;;2.20;99.33
54172;BME280;40076;52.354;4.970;2023-03-11T04:45:57;100936.94;;;2.19;100.00
54172;BME280;40076;52.354;4.970;2023-03-11T04:48:23;100937.75;;;2.20;100.00
54172;BME280;40076;52.354;4.970;2023-03-11T04:50:49;100938.81;;;2.19;100.00
54172;BME280;40076;52.354;4.970;2023-03-11T04:53:14;100936.94;;;2.19;100.00
54172;BME280;40076;52.354;4.970;2023-03-11T04:55:40;100948.41;;;2.20;100.00
54172;BME280;40076;52.354;4.970;2023-03-11T04:58:05;100942.53;;;2.18;100.00
54172;BME280;40076;52.354;4.970;2023-03-11T05:00:31;100949.97;;;2.16;100.00
54172;BME280;40076;52.354;4.970;2023-03-11T05:02:56;100941.44;;;2.14;100.00
54172;BME280;40076;52.354;4.970;2023-03-11T05:05:21;100942.22;;;2.14;100.00
54172;BME280;40076;52.354;4.970;2023-03-11T05:07:47;100939.03;;;2.12;100.00
54172;BME280;40076;52.354;4.970;2023-03-11T05:10:13;100942.78;;;2.11;100.00
54172;BME280;40076;52.354;4.970;2023-03-11T05:12:38;100959.00;;;2.10;100.00
54172;BME280;40076;52.354;4.970;2023-03-11T05:15:04;100947.28;;;2.06;100.00
54172;BME280;40076;52.354;4.970;2023-03-11T05:17:30;100950.19;;;2.04;100.00
54172;BME280;40076;52.354;4.970;2023-03-11T05:19:55;100953.63;;;2.00;100.00
54172;BME280;40076;52.354;4.970;2023-03-11T05:22:21;100950.69;;;1.96;100.00
54172;BME280;40076;52.354;4.970;2023-03-11T05:24:47;100953.84;;;1.93;100.00
54172;BME280;40076;52.354;4.970;2023-03-11T05:27:12;100952.78;;;1.89;100.00
54172;BME280;40076;52.354;4.970;2023-03-11T05:29:38;100960.47;;;1.85;100.00
54172;BME280;40076;52.354;4.970;2023-03-11T05:32:03;100969.25;;;1.81;100.00
54172;BME280;40076;52.354;4.970;2023-03-11T05:34:29;100967.34;;;1.76;100.00
54172;BME280;40076;52.354;4.970;2023-03-11T05:36:55;100976.13;;;1.72;100.00
54172;BME280;40076;52.354;4.970;2023-03-11T05:39:20;100968.91;;;1.67;100.00
54172;BME280;40076;52.354;4.970;2023-03-11T05:41:45;100970.22;;;1.65;100.00
54172;BME280;40076;52.354;4.970;2023-03-11T05:44:10;100968.31;;;1.60;100.00
54172;BME280;40076;52.354;4.970;2023-03-11T05:46:36;100976.00;;;1.57;100.00
54172;BME280;40076;52.354;4.970;2023-03-11T05:49:01;100978.34;;;1.53;100.00
54172;BME280;40076;52.354;4.970;2023-03-11T05:51:27;100986.63;;;1.51;100.00
54172;BME280;40076;52.354;4.970;2023-03-11T05:53:52;100984.47;;;1.48;100.00
54172;BME280;40076;52.354;4.970;2023-03-11T05:56:19;100990.28;;;1.45;100.00
54172;BME280;40076;52.354;4.970;2023-03-11T05:58:45;100996.38;;;1.41;100.00
54172;BME280;40076;52.354;4.970;2023-03-11T06:01:16;101001.97;;;1.39;100.00
54172;BME280;40076;52.354;4.970;2023-03-11T06:03:42;101007.00;;;1.36;100.00
54172;BME280;40076;52.354;4.970;2023-03-11T06:06:10;101000.88;;;1.35;100.00
54172;BME280;40076;52.354;4.970;2023-03-11T06:08:36;101006.44;;;1.34;100.00
54172;BME280;40076;52.354;4.970;2023-03-11T06:13:27;101004.00;;;1.27;100.00
54172;BME280;40076;52.354;4.970;2023-03-11T06:15:52;101008.50;;;1.27;100.00
54172;BME280;40076;52.354;4.970;2023-03-11T06:18:18;101014.09;;;1.25;100.00
54172;BME280;40076;52.354;4.970;2023-03-11T06:20:43;101001.81;;;1.24;100.00
54172;BME280;40076;52.354;4.970;2023-03-11T06:23:08;101015.38;;;1.23;100.00
54172;BME280;40076;52.354;4.970;2023-03-11T06:25:34;101013.00;;;1.21;100.00
54172;BME280;40076;52.354;4.970;2023-03-11T06:27:59;101012.44;;;1.19;100.00
54172;BME280;40076;52.354;4.970;2023-03-11T06:30:24;101019.84;;;1.17;100.00
54172;BME280;40076;52.354;4.970;2023-03-11T06:32:49;101012.94;;;1.16;100.00
54172;BME280;40076;52.354;4.970;2023-03-11T06:35:15;101021.44;;;1.13;100.00
54172;BME280;40076;52.354;4.970;2023-03-11T06:37:40;101025.16;;;1.12;100.00
54172;BME280;40076;52.354;4.970;2023-03-11T06:40:07;101028.06;;;1.10;100.00
54172;BME280;40076;52.354;4.970;2023-03-11T06:42:34;101028.53;;;1.07;100.00
54172;BME280;40076;52.354;4.970;2023-03-11T06:44:59;101028.81;;;1.06;100.00
54172;BME280;40076;52.354;4.970;2023-03-11T06:47:25;101033.34;;;1.05;100.00
54172;BME280;40076;52.354;4.970;2023-03-11T06:49:51;101032.78;;;1.03;100.00
54172;BME280;40076;52.354;4.970;2023-03-11T06:52:16;101038.34;;;1.02;100.00
54172;BME280;40076;52.354;4.970;2023-03-11T06:54:42;101037.78;;;1.00;100.00
54172;BME280;40076;52.354;4.970;2023-03-11T06:57:08;101034.31;;;0.99;100.00
54172;BME280;40076;52.354;4.970;2023-03-11T06:59:33;101041.50;;;0.99;100.00
54172;BME280;40076;52.354;4.970;2023-03-11T07:01:59;101046.03;;;0.98;100.00
54172;BME280;40076;52.354;4.970;2023-03-11T07:04:24;101061.19;;;0.98;100.00
54172;BME280;40076;52.354;4.970;2023-03-11T07:06:50;101059.56;;;0.97;100.00
54172;BME280;40076;52.354;4.970;2023-03-11T07:09:15;101063.03;;;0.97;100.00
54172;BME280;40076;52.354;4.970;2023-03-11T07:11:41;101066.75;;;0.96;100.00
54172;BME280;40076;52.354;4.970;2023-03-11T07:14:06;101062.25;;;0.97;100.00
54172;BME280;40076;52.354;4.970;2023-03-11T07:16:32;101071.84;;;0.98;100.00
54172;BME280;40076;52.354;4.970;2023-03-11T07:18:59;101069.16;;;0.98;100.00
54172;BME280;40076;52.354;4.970;2023-03-11T07:21:29;101076.88;;;0.99;100.00
54172;BME280;40076;52.354;4.970;2023-03-11T07:23:57;101078.50;;;1.00;100.00
54172;BME280;40076;52.354;4.970;2023-03-11T07:26:23;101072.13;;;1.01;100.00
54172;BME280;40076;52.354;4.970;2023-03-11T07:28:49;101075.34;;;1.03;100.00
54172;BME280;40076;52.354;4.970;2023-03-11T07:31:18;101080.41;;;1.05;100.00
54172;BME280;40076;52.354;4.970;2023-03-11T07:33:43;101080.94;;;1.07;100.00
54172;BME280;40076;52.354;4.970;2023-03-11T07:36:15;101074.59;;;1.08;100.00
54172;BME280;40076;52.354;4.970;2023-03-11T07:38:41;101075.94;;;1.10;100.00
54172;BME280;40076;52.354;4.970;2023-03-11T07:41:07;101076.50;;;1.12;100.00
54172;BME280;40076;52.354;4.970;2023-03-11T07:43:33;101083.19;;;1.15;100.00
54172;BME280;40076;52.354;4.970;2023-03-11T07:46:27;101079.78;;;1.20;100.00
54172;BME280;40076;52.354;4.970;2023-03-11T07:48:53;101083.25;;;1.20;100.00
54172;BME280;40076;52.354;4.970;2023-03-11T07:51:24;101082.19;;;1.21;100.00
54172;BME280;40076;52.354;4.970;2023-03-11T07:53:52;101088.63;;;1.25;100.00
54172;BME280;40076;52.354;4.970;2023-03-11T07:56:19;101096.13;;;1.28;100.00
54172;BME280;40076;52.354;4.970;2023-03-11T07:58:45;101092.13;;;1.31;100.00
54172;BME280;40076;52.354;4.970;2023-03-11T08:01:13;101094.31;;;1.34;100.00
54172;BME280;40076;52.354;4.970;2023-03-11T08:03:44;101095.38;;;1.38;100.00
54172;BME280;40076;52.354;4.970;2023-03-11T08:06:18;101101.84;;;1.42;100.00
54172;BME280;40076;52.354;4.970;2023-03-11T08:08:44;101103.72;;;1.46;100.00
54172;BME280;40076;52.354;4.970;2023-03-11T08:11:11;101116.56;;;1.49;100.00
54172;BME280;40076;52.354;4.970;2023-03-11T08:13:40;101118.47;;;1.54;100.00
54172;BME280;40076;52.354;4.970;2023-03-11T08:16:07;101116.09;;;1.58;100.00
54172;BME280;40076;52.354;4.970;2023-03-11T08:18:33;101108.41;;;1.61;100.00
54172;BME280;40076;52.354;4.970;2023-03-11T08:21:03;101111.38;;;1.65;100.00
54172;BME280;40076;52.354;4.970;2023-03-11T08:23:28;101125.78;;;1.69;100.00
54172;BME280;40076;52.354;4.970;2023-03-11T08:25:54;101130.38;;;1.73;100.00
54172;BME280;40076;52.354;4.970;2023-03-11T08:28:19;101128.00;;;1.77;100.00
54172;BME280;40076;52.354;4.970;2023-03-11T08:30:44;101127.25;;;1.81;100.00
54172;BME280;40076;52.354;4.970;2023-03-11T08:33:10;101125.69;;;1.85;100.00
54172;BME280;40076;52.354;4.970;2023-03-11T08:35:35;101123.31;;;1.89;100.00
54172;BME280;40076;52.354;4.970;2023-03-11T08:38:00;101131.84;;;1.91;100.00
54172;BME280;40076;52.354;4.970;2023-03-11T08:40:26;101140.16;;;1.94;100.00
54172;BME280;40076;52.354;4.970;2023-03-11T08:42:51;101145.78;;;1.98;100.00
54172;BME280;40076;52.354;4.970;2023-03-11T08:45:16;101140.75;;;2.02;100.00
54172;BME280;40076;52.354;4.970;2023-03-11T08:47:42;101145.28;;;2.06;100.00
54172;BME280;40076;52.354;4.970;2023-03-11T08:50:12;101154.41;;;2.10;100.00
54172;BME280;40076;52.354;4.970;2023-03-11T08:52:37;101152.56;;;2.16;100.00
54172;BME280;40076;52.354;4.970;2023-03-11T08:55:03;101143.84;;;2.20;100.00
54172;BME280;40076;52.354;4.970;2023-03-11T08:57:30;101160.66;;;2.26;100.00
54172;BME280;40076;52.354;4.970;2023-03-11T08:59:55;101161.75;;;2.30;100.00
54172;BME280;40076;52.354;4.970;2023-03-11T09:02:23;101170.84;;;2.34;100.00
54172;BME280;40076;52.354;4.970;2023-03-11T09:04:48;101167.41;;;2.39;100.00
54172;BME280;40076;52.354;4.970;2023-03-11T09:07:14;101164.25;;;2.42;100.00
54172;BME280;40076;52.354;4.970;2023-03-11T09:09:39;101174.13;;;2.46;100.00
54172;BME280;40076;52.354;4.970;2023-03-11T09:12:05;101169.63;;;2.52;100.00
54172;BME280;40076;52.354;4.970;2023-03-11T09:14:31;101168.88;;;2.56;100.00
54172;BME280;40076;52.354;4.970;2023-03-11T09:16:57;101172.63;;;2.60;100.00
54172;BME280;40076;52.354;4.970;2023-03-11T09:19:22;101165.72;;;2.64;100.00
54172;BME280;40076;52.354;4.970;2023-03-11T09:21:47;101172.94;;;2.69;100.00
54172;BME280;40076;52.354;4.970;2023-03-11T09:24:13;101170.59;;;2.72;100.00
54172;BME280;40076;52.354;4.970;2023-03-11T09:26:38;101173.28;;;2.78;100.00
54172;BME280;40076;52.354;4.970;2023-03-11T09:29:03;101178.09;;;2.81;100.00
54172;BME280;40076;52.354;4.970;2023-03-11T09:31:28;101178.38;;;2.84;100.00
54172;BME280;40076;52.354;4.970;2023-03-11T09:33:54;101174.13;;;2.88;100.00
54172;BME280;40076;52.354;4.970;2023-03-11T09:36:21;101172.53;;;2.92;100.00
54172;BME280;40076;52.354;4.970;2023-03-11T09:38:47;101173.66;;;2.96;100.00
54172;BME280;40076;52.354;4.970;2023-03-11T09:41:21;101176.34;;;3.01;100.00
54172;BME280;40076;52.354;4.970;2023-03-11T09:43:59;101176.34;;;3.06;100.00
54172;BME280;40076;52.354;4.970;2023-03-11T09:49:20;101173.47;;;3.18;100.00
54172;BME280;40076;52.354;4.970;2023-03-11T09:52:02;101163.59;;;3.24;100.00
54172;BME280;40076;52.354;4.970;2023-03-11T09:54:35;101162.81;;;3.28;100.00
54172;BME280;40076;52.354;4.970;2023-03-11T09:57:03;101162.03;;;3.33;100.00
54172;BME280;40076;52.354;4.970;2023-03-11T09:59:31;101169.00;;;3.39;100.00
54172;BME280;40076;52.354;4.970;2023-03-11T10:01:58;101168.19;;;3.43;100.00
54172;BME280;40076;52.354;4.970;2023-03-11T10:06:51;101163.69;;;3.54;100.00
54172;BME280;40076;52.354;4.970;2023-03-11T10:09:55;101169.84;;;3.60;100.00
54172;BME280;40076;52.354;4.970;2023-03-11T10:12:42;101163.19;;;3.62;100.00
54172;BME280;40076;52.354;4.970;2023-03-11T10:15:16;101170.69;;;3.65;100.00
54172;BME280;40076;52.354;4.970;2023-03-11T10:20:48;101168.56;;;3.72;100.00
54172;BME280;40076;52.354;4.970;2023-03-11T10:26:24;101171.53;;;3.81;100.00
54172;BME280;40076;52.354;4.970;2023-03-11T10:29:19;101172.31;;;3.86;100.00
54172;BME280;40076;52.354;4.970;2023-03-11T10:37:27;101164.31;;;3.97;100.00
54172;BME280;40076;52.354;4.970;2023-03-11T10:39:54;101169.91;;;4.00;100.00
54172;BME280;40076;52.354;4.970;2023-03-11T10:42:24;101171.28;;;4.03;100.00
54172;BME280;40076;52.354;4.970;2023-03-11T10:44:52;101164.31;;;4.07;100.00
54172;BME280;40076;52.354;4.970;2023-03-11T10:47:19;101161.66;;;4.12;100.00
54172;BME280;40076;52.354;4.970;2023-03-11T10:49:45;101169.66;;;4.17;100.00
54172;BME280;40076;52.354;4.970;2023-03-11T10:52:11;101173.41;;;4.21;100.00
54172;BME280;40076;52.354;4.970;2023-03-11T10:54:39;101165.91;;;4.23;100.00
54172;BME280;40076;52.354;4.970;2023-03-11T10:57:26;101173.94;;;4.28;100.00
54172;BME280;40076;52.354;4.970;2023-03-11T10:59:56;101176.06;;;4.31;100.00
54172;BME280;40076;52.354;4.970;2023-03-11T11:07:36;101180.06;;;4.44;100.00
54172;BME280;40076;52.354;4.970;2023-03-11T11:10:18;101180.09;;;4.49;100.00
54172;BME280;40076;52.354;4.970;2023-03-11T11:15:26;101180.34;;;4.57;100.00
54172;BME280;40076;52.354;4.970;2023-03-11T11:17:53;101184.06;;;4.61;100.00
54172;BME280;40076;52.354;4.970;2023-03-11T11:20:21;101188.09;;;4.64;100.00
54172;BME280;40076;52.354;4.970;2023-03-11T11:22:52;101187.28;;;4.69;100.00
54172;BME280;40076;52.354;4.970;2023-03-11T11:25:33;101185.94;;;4.71;100.00
54172;BME280;40076;52.354;4.970;2023-03-11T11:28:16;101195.03;;;4.75;100.00
54172;BME280;40076;52.354;4.970;2023-03-11T11:33:27;101187.00;;;4.80;98.61
54172;BME280;40076;52.354;4.970;2023-03-11T11:35:56;101189.91;;;4.84;99.85
54172;BME280;40076;52.354;4.970;2023-03-11T11:38:23;101189.09;;;4.88;99.88
54172;BME280;40076;52.354;4.970;2023-03-11T11:40:49;101182.94;;;4.93;99.97
54172;BME280;40076;52.354;4.970;2023-03-11T11:43:23;101189.06;;;4.98;100.00
54172;BME280;40076;52.354;4.970;2023-03-11T11:45:54;101175.38;;;5.05;100.00
54172;BME280;40076;52.354;4.970;2023-03-11T11:51:32;101184.19;;;5.16;97.06
54172;BME280;40076;52.354;4.970;2023-03-11T11:54:16;101177.19;;;5.20;97.81
54172;BME280;40076;52.354;4.970;2023-03-11T11:56:43;101168.09;;;5.21;95.75
54172;BME280;40076;52.354;4.970;2023-03-11T11:59:19;101171.56;;;5.26;96.52
54172;BME280;40076;52.354;4.970;2023-03-11T12:01:55;101170.75;;;5.31;96.07
54172;BME280;40076;52.354;4.970;2023-03-11T12:04:58;101175.25;;;5.35;95.73
54172;BME280;40076;52.354;4.970;2023-03-11T12:07:47;101160.25;;;5.39;92.44
54172;BME280;40076;52.354;4.970;2023-03-11T12:24:55;101163.88;;;5.59;91.28
54172;BME280;40076;52.354;4.970;2023-03-11T12:27:43;101165.22;;;5.61;90.74
54172;BME280;40076;52.354;4.970;2023-03-11T12:30:22;101169.75;;;5.66;89.35
54172;BME280;40076;52.354;4.970;2023-03-11T12:32:55;101168.13;;;5.70;89.61
54172;BME280;40076;52.354;4.970;2023-03-11T12:35:26;101167.00;;;5.76;89.19
54172;BME280;40076;52.354;4.970;2023-03-11T12:38:15;101162.13;;;5.83;89.38
54172;BME280;40076;52.354;4.970;2023-03-11T12:46:05;101175.50;;;5.93;87.41
54172;BME280;40076;52.354;4.970;2023-03-11T12:48:48;101171.16;;;5.97;85.12
54172;BME280;40076;52.354;4.970;2023-03-11T12:53:54;101164.94;;;6.07;85.25
54172;BME280;40076;52.354;4.970;2023-03-11T12:56:44;101161.41;;;6.11;83.30
54172;BME280;40076;52.354;4.970;2023-03-11T13:05:22;101166.69;;;6.22;80.31
54172;BME280;40076;52.354;4.970;2023-03-11T13:10:41;101154.56;;;6.29;77.89
54172;BME280;40076;52.354;4.970;2023-03-11T13:13:38;101160.94;;;6.33;78.83
54172;BME280;40076;52.354;4.970;2023-03-11T13:18:49;101151.47;;;6.41;74.28
54172;BME280;40076;52.354;4.970;2023-03-11T13:32:40;101165.00;;;6.59;72.30
54172;BME280;40076;52.354;4.970;2023-03-11T13:40:48;101165.34;;;6.53;69.79
54172;BME280;40076;52.354;4.970;2023-03-11T13:43:16;101177.44;;;6.50;68.71
54172;BME280;40076;52.354;4.970;2023-03-11T13:46:04;101173.94;;;6.50;69.01
54172;BME280;40076;52.354;4.970;2023-03-11T13:48:35;101182.00;;;6.50;69.24
54172;BME280;40076;52.354;4.970;2023-03-11T13:51:39;101171.84;;;6.47;67.90
54172;BME280;40076;52.354;4.970;2023-03-11T13:56:51;101186.63;;;6.44;69.05
54172;BME280;40076;52.354;4.970;2023-03-11T13:59:27;101189.03;;;6.46;69.77
54172;BME280;40076;52.354;4.970;2023-03-11T14:01:58;101193.88;;;6.44;69.22
54172;BME280;40076;52.354;4.970;2023-03-11T14:04:32;101179.66;;;6.43;66.77
54172;BME280;40076;52.354;4.970;2023-03-11T14:07:11;101183.94;;;6.44;66.97
54172;BME280;40076;52.354;4.970;2023-03-11T14:09:37;101185.53;;;6.45;66.13
54172;BME280;40076;52.354;4.970;2023-03-11T14:12:04;101188.50;;;6.44;64.92
54172;BME280;40076;52.354;4.970;2023-03-11T14:14:49;101187.72;;;6.43;62.24
54172;BME280;40076;52.354;4.970;2023-03-11T14:17:19;101190.91;;;6.45;64.50
54172;BME280;40076;52.354;4.970;2023-03-11T14:22:47;101202.47;;;6.46;64.05
54172;BME280;40076;52.354;4.970;2023-03-11T14:25:21;101203.25;;;6.46;64.08
54172;BME280;40076;52.354;4.970;2023-03-11T14:27:52;101197.88;;;6.46;64.95
54172;BME280;40076;52.354;4.970;2023-03-11T14:30:20;101201.88;;;6.49;64.26
54172;BME280;40076;52.354;4.970;2023-03-11T14:32:56;101201.88;;;6.49;62.92
54172;BME280;40076;52.354;4.970;2023-03-11T14:35:22;101206.69;;;6.52;63.50
54172;BME280;40076;52.354;4.970;2023-03-11T14:37:47;101205.63;;;6.53;63.15